Time;durP1;ratioP1;P1;durP2;ratioP2;P2;SDS_P1;SDS_P2;PMS_P1;PMS_P2;Temp;Humidity;BMP_temperature;BMP_pressure;BME280_temperature;BME280_humidity;BME280_pressure;Samples;Min_cycle;Max_cycle;Signal;HPM_P1;HPM_P2
2024/04/15 00:00:33;;;;;;;3.43;2.80;;;13.40;99.40;;;;;;5344030;26;20228;-61
2024/04/15 00:02:58;;;;;;;2.43;2.13;;;13.50;99.30;;;;;;5344447;26;21084;-61
2024/04/15 00:05:24;;;;;;;2.63;1.93;;;13.50;99.30;;;;;;5329281;26;20565;-61
2024/04/15 00:07:50;;;;;;;1.83;1.73;;;13.40;99.40;;;;;;5328468;26;20232;-61
2024/04/15 00:10:16;;;;;;;3.50;2.20;;;13.60;99.40;;;;;;5313420;26;20260;-61
2024/04/15 00:12:42;;;;;;;2.83;2.07;;;13.60;99.10;;;;;;5344096;26;20447;-60
2024/04/15 00:15:07;;;;;;;1.67;1.57;;;13.60;99.50;;;;;;5333105;26;20230;-61
2024/04/15 00:17:33;;;;;;;2.20;2.00;;;13.60;99.60;;;;;;5339634;26;20577;-61
2024/04/15 00:19:59;;;;;;;1.97;1.83;;;13.60;99.60;;;;;;5346816;26;20636;-61
2024/04/15 00:22:24;;;;;;;3.27;2.27;;;13.60;99.70;;;;;;5347781;26;20224;-60
2024/04/15 00:24:50;;;;;;;1.70;1.60;;;13.60;99.70;;;;;;5346147;26;20458;-61
2024/04/15 00:27:15;;;;;;;2.60;2.23;;;13.70;99.80;;;;;;5347242;26;20727;-61
2024/04/15 00:29:41;;;;;;;2.53;1.70;;;13.70;99.80;;;;;;5347325;26;20205;-61
2024/04/15 00:32:07;;;;;;;3.90;2.20;;;13.70;99.90;;;;;;5347155;26;20257;-61
2024/04/15 00:34:32;;;;;;;2.50;1.73;;;13.70;99.80;;;;;;5313900;26;20327;-61
2024/04/15 00:36:58;;;;;;;1.70;1.60;;;13.70;99.90;;;;;;5334361;26;20708;-61
2024/04/15 00:39:27;;;;;;;1.70;1.60;;;13.80;99.90;;;;;;5347301;26;20322;-60
2024/04/15 00:41:53;;;;;;;2.27;2.07;;;13.80;99.80;;;;;;5347034;26;20277;-61
2024/04/15 00:44:18;;;;;;;2.07;1.87;;;13.80;99.70;;;;;;5371747;26;20458;-61
2024/04/15 00:46:44;;;;;;;2.03;1.90;;;13.90;99.70;;;;;;5311249;26;20233;-61
2024/04/15 00:49:13;;;;;;;2.20;2.03;;;13.90;99.70;;;;;;5346726;26;20335;-61
2024/04/15 00:51:41;;;;;;;3.30;2.63;;;13.90;99.70;;;;;;5347182;26;20269;-61
2024/04/15 00:54:08;;;;;;;2.30;2.10;;;14.00;99.50;;;;;;5347763;26;20527;-61
2024/04/15 00:56:34;;;;;;;2.53;2.27;;;14.00;99.00;;;;;;5344617;26;20464;-61
2024/04/15 00:59:00;;;;;;;5.10;2.50;;;14.10;99.10;;;;;;5346890;26;20570;-61
2024/04/15 01:01:26;;;;;;;2.60;2.10;;;14.10;99.20;;;;;;5346721;26;20511;-61
2024/04/15 01:03:54;;;;;;;1.90;1.80;;;14.10;99.30;;;;;;5347261;26;20459;-61
2024/04/15 01:06:20;;;;;;;2.30;2.10;;;14.10;99.70;;;;;;5345428;26;20945;-61
2024/04/15 01:08:45;;;;;;;2.93;2.00;;;14.20;99.30;;;;;;5346961;26;20468;-61
2024/04/15 01:11:13;;;;;;;1.77;1.67;;;14.30;99.40;;;;;;5346548;26;20264;-61
2024/04/15 01:13:39;;;;;;;2.10;1.60;;;14.40;99.70;;;;;;5346876;26;20230;-61
2024/04/15 01:16:05;;;;;;;2.30;2.00;;;14.40;99.10;;;;;;5345307;26;20511;-60
2024/04/15 01:18:31;;;;;;;2.70;1.97;;;14.50;99.40;;;;;;5347064;26;20466;-61
2024/04/15 01:20:58;;;;;;;2.33;2.13;;;14.50;99.00;;;;;;5346465;26;20516;-61
2024/04/15 01:23:30;;;;;;;2.43;2.10;;;14.60;99.10;;;;;;5345548;26;20578;-61
2024/04/15 01:25:55;;;;;;;2.87;2.67;;;14.60;99.00;;;;;;5332952;26;21102;-61
2024/04/15 01:28:21;;;;;;;4.80;1.80;;;14.60;99.00;;;;;;5346795;26;20441;-61
2024/04/15 01:30:47;;;;;;;2.30;2.10;;;14.70;99.00;;;;;;5345908;26;20323;-61
2024/04/15 01:33:13;;;;;;;3.23;2.93;;;14.80;98.80;;;;;;5345222;26;20801;-61
2024/04/15 01:35:38;;;;;;;3.00;2.27;;;14.70;99.00;;;;;;5346540;26;20555;-61
2024/04/15 01:38:04;;;;;;;2.47;2.27;;;14.80;98.90;;;;;;5346608;26;20314;-61
2024/04/15 01:40:30;;;;;;;3.03;2.53;;;14.90;99.10;;;;;;5346072;26;20211;-61
2024/04/15 01:42:55;;;;;;;2.60;2.00;;;15.00;99.20;;;;;;5344997;26;20696;-61
2024/04/15 01:45:21;;;;;;;2.50;2.30;;;14.90;99.40;;;;;;5302038;26;20226;-61
2024/04/15 01:47:48;;;;;;;4.60;2.07;;;14.90;99.70;;;;;;5346550;26;20782;-61
2024/04/15 01:50:15;;;;;;;2.67;2.47;;;14.90;99.40;;;;;;5303392;27;20596;-61
2024/04/15 01:52:41;;;;;;;2.93;2.50;;;15.00;98.90;;;;;;5343091;26;20459;-61
2024/04/15 01:55:06;;;;;;;3.20;2.50;;;15.10;98.60;;;;;;5346299;26;20804;-61
2024/04/15 01:57:32;;;;;;;3.80;2.50;;;15.10;98.80;;;;;;5343561;26;20288;-61
2024/04/15 01:59:57;;;;;;;2.83;2.50;;;15.00;98.90;;;;;;5346041;26;20326;-61
2024/04/15 02:02:23;;;;;;;2.03;1.93;;;15.00;98.90;;;;;;5346355;26;20215;-61
2024/04/15 02:04:49;;;;;;;1.80;1.70;;;15.10;98.60;;;;;;5346247;26;20272;-61
2024/04/15 02:07:14;;;;;;;2.73;2.53;;;15.00;98.70;;;;;;5344847;26;20743;-61
2024/04/15 02:09:40;;;;;;;2.50;2.30;;;14.90;98.90;;;;;;5345897;26;20243;-61
2024/04/15 02:12:06;;;;;;;2.83;2.23;;;15.00;98.90;;;;;;5345876;26;20219;-61
2024/04/15 02:14:32;;;;;;;2.73;2.37;;;15.00;98.90;;;;;;5345876;26;20624;-61
2024/04/15 02:16:57;;;;;;;2.43;2.23;;;15.00;98.70;;;;;;5344641;26;20596;-61
2024/04/15 02:19:23;;;;;;;2.43;2.23;;;15.10;98.40;;;;;;5331654;26;20235;-61
2024/04/15 02:21:49;;;;;;;2.50;2.30;;;15.10;98.20;;;;;;5345651;26;20244;-61
2024/04/15 02:24:15;;;;;;;2.97;2.67;;;15.00;98.40;;;;;;5345854;26;20252;-61
2024/04/15 02:26:40;;;;;;;6.87;2.40;;;15.00;98.50;;;;;;5344469;26;20691;-60
2024/04/15 02:29:06;;;;;;;3.63;3.23;;;14.90;99.00;;;;;;5345432;26;20221;-61
2024/04/15 02:31:31;;;;;;;3.40;1.97;;;14.90;98.70;;;;;;5345541;26;20704;-61
2024/04/15 02:33:58;;;;;;;2.70;2.27;;;14.90;98.80;;;;;;5345775;26;20222;-61
2024/04/15 02:36:23;;;;;;;2.23;2.03;;;14.90;98.70;;;;;;5345869;26;20657;-61
2024/04/15 02:38:49;;;;;;;2.37;2.17;;;14.90;98.70;;;;;;5329398;26;20551;-61
2024/04/15 02:41:15;;;;;;;5.50;2.97;;;14.90;98.70;;;;;;5344280;26;20230;-61
2024/04/15 02:43:41;;;;;;;5.23;2.70;;;14.90;98.70;;;;;;5345499;26;20475;-61
2024/04/15 02:46:07;;;;;;;1.90;1.80;;;15.00;98.70;;;;;;5345586;26;20456;-61
2024/04/15 02:48:33;;;;;;;2.80;1.90;;;15.00;98.60;;;;;;5344462;26;20605;-61
2024/04/15 02:50:59;;;;;;;3.27;2.77;;;15.00;98.70;;;;;;5345051;26;20233;-61
2024/04/15 02:53:25;;;;;;;2.80;2.47;;;15.00;98.70;;;;;;5345585;26;20512;-61
2024/04/15 02:55:53;;;;;;;3.03;2.73;;;15.10;98.80;;;;;;5339003;26;20469;-61
2024/04/15 02:58:19;;;;;;;2.33;2.13;;;15.10;98.60;;;;;;5335761;26;20470;-61
2024/04/15 03:00:44;;;;;;;2.77;2.57;;;15.10;98.70;;;;;;5343919;26;21081;-61
2024/04/15 03:03:10;;;;;;;2.40;2.20;;;15.20;98.80;;;;;;5345456;26;20480;-61
2024/04/15 03:05:40;;;;;;;1.90;1.70;;;15.10;99.10;;;;;;5341915;26;20267;-61
2024/04/15 03:08:06;;;;;;;1.90;1.80;;;15.00;99.10;;;;;;5333605;26;20601;-61
2024/04/15 03:10:31;;;;;;;2.43;2.33;;;15.00;99.30;;;;;;5344930;26;20452;-61
2024/04/15 03:12:57;;;;;;;2.30;2.10;;;14.90;99.40;;;;;;5345292;26;20584;-61
2024/04/15 03:15:23;;;;;;;2.70;2.50;;;14.90;99.20;;;;;;5344900;26;20230;-61
2024/04/15 03:17:50;;;;;;;3.43;2.23;;;14.90;99.20;;;;;;5329996;26;20226;-61
2024/04/15 03:20:16;;;;;;;3.50;2.20;;;14.90;99.30;;;;;;5344735;26;20217;-61
2024/04/15 03:22:49;;;;;;;3.00;2.50;;;14.90;99.30;;;;;;5344888;26;20847;-61
2024/04/15 03:25:19;;;;;;;2.07;1.90;;;14.90;99.40;;;;;;5345496;26;21012;-61
2024/04/15 03:27:45;;;;;;;3.53;2.67;;;14.90;99.60;;;;;;5312977;26;20519;-61
2024/04/15 03:30:12;;;;;;;2.50;2.30;;;14.90;99.80;;;;;;5344624;26;20895;-61
2024/04/15 03:32:37;;;;;;;2.33;2.13;;;14.80;99.90;;;;;;5345010;26;20456;-61
2024/04/15 03:35:04;;;;;;;2.80;2.60;;;14.80;99.90;;;;;;5344863;26;20579;-61
2024/04/15 03:37:29;;;;;;;2.50;2.40;;;14.90;99.80;;;;;;5343363;26;20230;-60
2024/04/15 03:39:55;;;;;;;5.00;2.40;;;14.90;99.70;;;;;;5344285;26;20514;-61
2024/04/15 03:42:20;;;;;;;2.70;2.50;;;14.90;99.70;;;;;;5344814;26;20562;-61
2024/04/15 03:44:47;;;;;;;8.27;6.80;;;14.90;99.70;;;;;;5344885;26;20228;-61
2024/04/15 03:47:13;;;;;;;10.50;4.50;;;14.90;99.70;;;;;;5333406;26;20233;-61
2024/04/15 03:49:39;;;;;;;5.23;4.80;;;14.80;99.70;;;;;;5340599;26;20456;-61
2024/04/15 03:52:04;;;;;;;6.07;5.40;;;14.70;99.90;;;;;;5345040;26;20213;-61
2024/04/15 03:54:33;;;;;;;5.40;3.37;;;14.70;99.90;;;;;;5347775;26;20289;-61
2024/04/15 03:56:58;;;;;;;3.63;2.60;;;14.70;99.90;;;;;;5346081;26;20463;-61
2024/04/15 03:59:24;;;;;;;3.47;2.83;;;14.70;99.90;;;;;;5347298;26;20459;-61
2024/04/15 04:01:49;;;;;;;4.20;2.43;;;14.70;99.90;;;;;;5347612;26;20651;-61
2024/04/15 04:04:15;;;;;;;5.53;2.70;;;14.70;99.90;;;;;;5315891;26;20304;-61
2024/04/15 04:06:41;;;;;;;4.33;3.07;;;14.80;99.90;;;;;;5333132;26;20217;-61
2024/04/15 04:09:06;;;;;;;4.30;2.83;;;14.80;99.90;;;;;;5347491;26;20228;-61
2024/04/15 04:11:32;;;;;;;3.03;2.73;;;14.90;99.90;;;;;;5347497;26;20261;-61
2024/04/15 04:13:57;;;;;;;2.53;2.33;;;14.90;99.90;;;;;;5316603;26;20232;-60
2024/04/15 04:16:23;;;;;;;3.07;2.87;;;14.80;99.80;;;;;;5347935;26;20777;-61
2024/04/15 04:18:49;;;;;;;4.00;2.20;;;14.80;99.90;;;;;;5347679;26;20225;-61
2024/04/15 04:21:14;;;;;;;7.27;2.50;;;14.80;99.90;;;;;;5347163;26;20616;-61
2024/04/15 04:23:40;;;;;;;1.77;1.67;;;14.80;99.90;;;;;;5347457;26;20723;-61
2024/04/15 04:26:05;;;;;;;2.87;2.30;;;14.70;99.90;;;;;;5331751;26;20234;-60
2024/04/15 04:28:31;;;;;;;2.53;2.33;;;14.60;99.90;;;;;;5347470;26;20309;-61
2024/04/15 04:31:04;;;;;;;6.03;2.47;;;14.70;99.90;;;;;;5347120;26;20346;-61
2024/04/15 04:33:31;;;;;;;3.67;2.57;;;14.70;99.90;;;;;;5347387;26;20541;-61
2024/04/15 04:35:56;;;;;;;5.47;2.20;;;14.60;99.90;;;;;;5331325;26;20463;-61
2024/04/15 04:38:22;;;;;;;3.27;2.97;;;14.60;99.90;;;;;;5347660;26;20573;-61
2024/04/15 04:40:56;;;;;;;3.13;2.30;;;14.60;99.90;;;;;;5346778;26;20216;-61
2024/04/15 04:43:21;;;;;;;2.70;2.50;;;14.70;99.90;;;;;;5347122;26;20231;-62
2024/04/15 04:45:47;;;;;;;2.77;2.47;;;14.80;99.90;;;;;;5340314;26;20541;-61
2024/04/15 04:48:12;;;;;;;7.43;2.80;;;14.80;99.90;;;;;;5336719;26;20228;-60
2024/04/15 04:50:38;;;;;;;3.40;2.73;;;14.90;99.90;;;;;;5346783;26;20265;-60
2024/04/15 04:53:04;;;;;;;3.77;3.40;;;14.90;99.90;;;;;;5344051;26;20230;-61
2024/04/15 04:55:31;;;;;;;3.50;2.93;;;14.80;99.90;;;;;;5347188;26;20775;-61
2024/04/15 04:57:57;;;;;;;4.40;3.00;;;14.90;99.90;;;;;;5320702;26;20807;-61
2024/04/15 05:00:23;;;;;;;4.20;3.30;;;14.90;99.90;;;;;;5330720;26;20461;-61
2024/04/15 05:02:49;;;;;;;3.63;2.77;;;14.90;99.90;;;;;;5312201;27;20270;-61
2024/04/15 05:05:14;;;;;;;6.20;3.80;;;15.00;99.90;;;;;;5313458;26;20502;-61
2024/04/15 05:07:40;;;;;;;4.60;3.60;;;14.90;99.90;;;;;;5299040;26;20692;-61
2024/04/15 05:10:06;;;;;;;3.70;3.17;;;14.90;99.90;;;;;;5342915;26;20290;-61
2024/04/15 05:12:32;;;;;;;5.40;4.90;;;14.90;99.90;;;;;;5347007;26;20249;-61
2024/04/15 05:15:04;;;;;;;7.03;4.70;;;14.80;99.90;;;;;;5327925;26;20532;-62
2024/04/15 05:17:31;;;;;;;5.67;5.20;;;14.80;99.90;;;;;;5346957;26;20460;-62
2024/04/15 05:19:56;;;;;;;5.13;4.13;;;14.80;99.90;;;;;;5346257;26;20592;-62
2024/04/15 05:22:22;;;;;;;4.70;4.40;;;14.80;99.90;;;;;;5346753;26;20698;-62
2024/04/15 05:24:48;;;;;;;4.63;3.90;;;15.00;99.90;;;;;;5346944;26;20233;-61
2024/04/15 05:27:13;;;;;;;5.10;4.60;;;15.10;99.90;;;;;;5347079;26;20698;-62
2024/04/15 05:29:39;;;;;;;6.40;4.47;;;15.20;99.90;;;;;;5346765;26;20224;-61
2024/04/15 05:32:05;;;;;;;4.97;4.40;;;15.20;99.90;;;;;;5344016;26;20614;-61
2024/04/15 05:34:33;;;;;;;4.87;4.27;;;15.20;99.90;;;;;;5326371;26;20994;-61
2024/04/15 05:36:59;;;;;;;4.47;4.07;;;15.10;99.90;;;;;;5344038;26;20549;-60
2024/04/15 05:39:24;;;;;;;5.63;4.60;;;15.10;99.90;;;;;;5350550;26;20512;-61
2024/04/15 05:41:50;;;;;;;5.67;3.87;;;15.10;99.90;;;;;;5345981;26;20240;-61
2024/04/15 05:44:17;;;;;;;4.37;3.97;;;15.20;99.90;;;;;;5315278;26;20727;-62
2024/04/15 05:46:50;;;;;;;5.10;4.60;;;15.30;99.90;;;;;;5345831;26;20459;-62
2024/04/15 05:49:19;;;;;;;4.60;4.20;;;15.40;99.90;;;;;;5345708;26;20914;-61
2024/04/15 05:51:46;;;;;;;5.30;4.47;;;15.50;99.90;;;;;;5346016;26;20547;-61
2024/04/15 05:54:12;;;;;;;4.83;4.40;;;15.60;99.90;;;;;;5346256;26;20476;-61
2024/04/15 05:56:37;;;;;;;6.17;4.70;;;15.70;99.70;;;;;;5346091;26;20705;-61
2024/04/15 05:59:03;;;;;;;4.83;4.20;;;15.70;99.60;;;;;;5346015;26;20455;-61
2024/04/15 06:01:28;;;;;;;5.20;4.67;;;15.80;99.30;;;;;;5345632;26;20226;-61
2024/04/15 06:03:54;;;;;;;5.23;4.73;;;15.80;99.10;;;;;;5340876;26;20269;-61
2024/04/15 06:06:22;;;;;;;5.10;3.97;;;15.80;99.30;;;;;;5341862;26;20726;-61
2024/04/15 06:08:48;;;;;;;6.03;3.70;;;15.80;99.30;;;;;;5342675;26;20724;-61
2024/04/15 06:11:13;;;;;;;5.43;3.93;;;15.80;99.20;;;;;;5352591;26;20571;-61
2024/04/15 06:13:40;;;;;;;5.03;3.63;;;15.80;99.20;;;;;;5345511;26;20292;-61
2024/04/15 06:16:07;;;;;;;3.70;3.40;;;15.90;99.30;;;;;;5335431;26;20670;-62
2024/04/15 06:18:32;;;;;;;5.20;4.70;;;15.90;99.20;;;;;;5366976;26;20479;-61
2024/04/15 06:20:58;;;;;;;3.20;2.90;;;15.80;99.20;;;;;;5313673;26;20476;-61
2024/04/15 06:23:24;;;;;;;6.40;4.30;;;15.70;99.60;;;;;;5344831;26;20600;-61
2024/04/15 06:25:51;;;;;;;4.33;3.97;;;15.60;99.50;;;;;;5344269;26;20234;-61
2024/04/15 06:28:17;;;;;;;4.70;3.67;;;15.60;99.50;;;;;;5345705;26;20222;-61
2024/04/15 06:30:42;;;;;;;5.30;3.53;;;15.50;99.70;;;;;;5343631;26;20459;-62
2024/04/15 06:33:08;;;;;;;3.27;2.97;;;15.30;99.90;;;;;;5344956;26;20297;-62
2024/04/15 06:35:33;;;;;;;3.37;3.07;;;15.30;99.90;;;;;;5348847;26;20230;-61
2024/04/15 06:37:59;;;;;;;3.53;3.20;;;15.20;99.90;;;;;;5307037;26;20251;-61
2024/04/15 06:40:28;;;;;;;3.40;3.10;;;15.10;99.90;;;;;;5344934;26;20225;-61
2024/04/15 06:42:55;;;;;;;4.47;3.23;;;15.00;99.90;;;;;;5344886;26;20268;-61
2024/04/15 06:45:21;;;;;;;4.00;3.37;;;14.90;99.90;;;;;;5345252;26;20451;-61
2024/04/15 06:47:46;;;;;;;4.83;4.43;;;15.00;99.90;;;;;;5303775;26;20524;-62
2024/04/15 06:50:12;;;;;;;4.10;3.10;;;15.10;99.90;;;;;;5329126;26;20813;-61
2024/04/15 06:52:37;;;;;;;5.37;3.67;;;15.20;99.90;;;;;;5324427;26;20242;-61
2024/04/15 06:55:03;;;;;;;4.43;3.10;;;15.40;99.90;;;;;;5311848;26;20354;-61
2024/04/15 06:57:29;;;;;;;4.30;3.10;;;15.40;99.70;;;;;;5328330;26;20229;-61
2024/04/15 06:59:55;;;;;;;3.50;3.07;;;15.40;99.70;;;;;;5329528;26;20867;-61
2024/04/15 07:02:23;;;;;;;3.37;3.07;;;15.40;99.60;;;;;;5328810;26;20245;-61
2024/04/15 07:04:51;;;;;;;4.17;3.00;;;15.30;99.60;;;;;;5343874;26;20471;-61
2024/04/15 07:07:17;;;;;;;2.87;2.67;;;15.10;99.80;;;;;;5326528;26;20472;-61
2024/04/15 07:09:43;;;;;;;3.47;3.17;;;15.00;99.90;;;;;;5328953;26;20477;-61
2024/04/15 07:12:09;;;;;;;5.97;3.20;;;15.00;99.90;;;;;;5328461;26;20521;-61
2024/04/15 07:14:36;;;;;;;3.23;2.93;;;15.00;99.90;;;;;;5327724;26;20283;-61
2024/04/15 07:17:01;;;;;;;3.63;3.33;;;15.00;99.90;;;;;;5343366;26;20464;-61
2024/04/15 07:19:27;;;;;;;4.50;4.10;;;15.00;99.50;;;;;;5328248;26;20476;-61
2024/04/15 07:21:53;;;;;;;3.73;3.43;;;15.10;99.40;;;;;;5328036;26;20339;-61
2024/04/15 07:24:18;;;;;;;3.70;3.40;;;15.10;99.50;;;;;;5328120;26;20574;-61
2024/04/15 07:26:44;;;;;;;4.17;3.20;;;15.20;99.40;;;;;;5326574;26;20282;-61
2024/04/15 07:29:09;;;;;;;4.23;3.83;;;15.30;99.20;;;;;;5323768;26;20233;-61
2024/04/15 07:31:35;;;;;;;3.93;3.63;;;15.30;99.30;;;;;;5343224;26;20284;-62
2024/04/15 07:34:00;;;;;;;4.13;3.63;;;15.20;99.50;;;;;;5322392;26;20234;-63
2024/04/15 07:36:28;;;;;;;4.17;3.77;;;15.10;99.90;;;;;;5341937;26;20238;-62
2024/04/15 07:38:54;;;;;;;7.80;4.90;;;15.20;99.90;;;;;;5341146;26;20233;-62
2024/04/15 07:41:19;;;;;;;4.33;3.93;;;15.30;99.90;;;;;;5342741;26;20548;-62
2024/04/15 07:43:45;;;;;;;8.63;4.20;;;15.30;99.90;;;;;;5324367;26;20268;-62
2024/04/15 07:46:11;;;;;;;6.03;3.77;;;15.20;99.90;;;;;;5330708;26;20608;-62
2024/04/15 07:48:38;;;;;;;3.47;3.17;;;15.10;99.90;;;;;;5338484;26;20536;-62
2024/04/15 07:51:04;;;;;;;3.17;2.87;;;14.90;99.90;;;;;;5344077;26;20297;-62
2024/04/15 07:53:35;;;;;;;3.27;2.97;;;14.60;99.90;;;;;;5344563;26;21007;-62
2024/04/15 07:56:02;;;;;;;4.50;3.50;;;14.80;99.90;;;;;;5344402;26;20868;-62
2024/04/15 07:58:30;;;;;;;3.77;3.47;;;14.90;99.90;;;;;;5344459;26;20509;-62
2024/04/15 08:00:56;;;;;;;3.80;3.37;;;14.90;99.90;;;;;;5343759;26;20528;-62
2024/04/15 08:03:22;;;;;;;5.13;3.40;;;15.00;99.90;;;;;;5344133;26;20825;-63
2024/04/15 08:05:48;;;;;;;4.00;3.30;;;14.90;99.90;;;;;;5346338;26;20470;-62
2024/04/15 08:08:14;;;;;;;4.17;3.47;;;14.80;99.90;;;;;;5348479;26;20299;-62
2024/04/15 08:10:39;;;;;;;2.77;2.57;;;14.90;99.90;;;;;;5323816;26;20271;-62
2024/04/15 08:13:05;;;;;;;3.37;3.07;;;14.80;99.90;;;;;;5352690;26;20565;-62
2024/04/15 08:15:31;;;;;;;2.73;2.53;;;14.60;99.90;;;;;;5353133;26;20351;-62
2024/04/15 08:17:58;;;;;;;3.63;2.97;;;14.50;99.90;;;;;;5357983;26;20221;-62
2024/04/15 08:20:23;;;;;;;4.10;2.77;;;14.60;99.90;;;;;;5358206;26;20462;-62
2024/04/15 08:22:49;;;;;;;4.10;3.17;;;14.60;99.90;;;;;;5351008;26;20883;-62
2024/04/15 08:25:16;;;;;;;3.00;2.70;;;14.70;99.90;;;;;;5343560;26;20293;-64
2024/04/15 08:27:42;;;;;;;2.73;2.53;;;14.80;99.90;;;;;;5366140;26;20226;-64
2024/04/15 08:30:08;;;;;;;3.27;2.97;;;14.90;99.90;;;;;;5364977;26;20506;-64
2024/04/15 08:32:34;;;;;;;3.23;2.93;;;14.80;99.90;;;;;;5349946;26;20230;-64
2024/04/15 08:35:00;;;;;;;3.07;2.87;;;14.90;99.90;;;;;;5343194;26;20467;-63
2024/04/15 08:37:27;;;;;;;4.70;2.90;;;14.90;99.90;;;;;;5343810;26;20465;-64
2024/04/15 08:39:53;;;;;;;3.33;2.90;;;14.90;99.90;;;;;;5343133;26;20467;-63
2024/04/15 08:42:55;;;;;;;3.00;2.70;;;14.80;99.90;;;;;;5347135;26;20508;-64
2024/04/15 08:45:26;;;;;;;4.27;3.43;;;14.90;99.90;;;;;;5347269;26;20216;-64
2024/04/15 08:47:53;;;;;;;4.20;3.80;;;15.10;99.90;;;;;;5347376;26;20569;-64
2024/04/15 08:50:23;;;;;;;5.43;3.67;;;15.10;99.90;;;;;;5346902;26;20451;-63
2024/04/15 08:52:52;;;;;;;3.80;3.40;;;15.20;99.90;;;;;;5347332;26;20500;-63
2024/04/15 08:55:20;;;;;;;3.63;3.30;;;15.40;99.90;;;;;;5288086;26;20545;-63
2024/04/15 08:57:49;;;;;;;2.90;2.70;;;15.50;99.90;;;;;;5346528;26;20507;-63
2024/04/15 09:00:19;;;;;;;3.00;2.80;;;15.70;99.90;;;;;;5346610;26;20443;-63
2024/04/15 09:02:46;;;;;;;5.00;2.97;;;16.00;99.90;;;;;;5347036;26;20444;-63
2024/04/15 09:05:12;;;;;;;2.80;2.70;;;16.30;98.90;;;;;;5316339;26;20451;-63
2024/04/15 09:07:39;;;;;;;4.10;3.37;;;16.20;98.40;;;;;;5316323;26;20455;-63
2024/04/15 09:10:05;;;;;;;4.17;3.77;;;15.90;98.70;;;;;;5346772;26;20600;-63
2024/04/15 09:12:41;;;;;;;3.17;2.87;;;15.70;99.10;;;;;;5347077;26;20523;-63
2024/04/15 09:15:10;;;;;;;3.80;2.97;;;15.50;99.20;;;;;;5347321;26;20503;-63
2024/04/15 09:17:37;;;;;;;4.00;3.33;;;15.70;99.10;;;;;;5346917;26;20512;-63
2024/04/15 09:20:03;;;;;;;3.57;3.27;;;15.70;99.00;;;;;;5346560;26;20455;-63
2024/04/15 09:22:29;;;;;;;3.60;3.30;;;15.50;98.70;;;;;;5316370;26;20821;-63
2024/04/15 09:24:55;;;;;;;3.77;3.47;;;15.50;98.80;;;;;;5346980;26;20582;-63
2024/04/15 09:27:24;;;;;;;3.50;3.20;;;15.60;99.50;;;;;;5346832;26;20444;-63
2024/04/15 09:29:50;;;;;;;3.77;3.47;;;15.70;99.50;;;;;;5346690;26;20233;-63
2024/04/15 09:32:16;;;;;;;5.43;4.30;;;16.10;99.80;;;;;;5346487;26;20567;-63
2024/04/15 09:34:41;;;;;;;3.40;3.10;;;16.30;98.40;;;;;;5316475;26;20818;-63
2024/04/15 09:37:08;;;;;;;3.50;3.20;;;16.30;98.10;;;;;;5346721;26;20768;-63
2024/04/15 09:39:36;;;;;;;5.40;3.40;;;16.30;97.60;;;;;;5346639;26;20214;-63
2024/04/15 09:42:02;;;;;;;3.80;3.47;;;16.20;97.80;;;;;;5346540;26;20503;-63
2024/04/15 09:44:29;;;;;;;3.00;2.70;;;16.00;98.10;;;;;;5346365;26;20464;-63
2024/04/15 09:47:01;;;;;;;4.17;3.07;;;15.70;97.90;;;;;;5346456;26;20519;-63
2024/04/15 09:49:29;;;;;;;3.57;3.10;;;15.70;97.60;;;;;;5346659;26;20869;-63
2024/04/15 09:52:03;;;;;;;4.13;2.90;;;15.70;97.40;;;;;;5346062;26;20444;-63
2024/04/15 09:54:32;;;;;;;4.23;3.53;;;15.80;97.30;;;;;;5346523;26;20451;-63
2024/04/15 09:57:14;;;;;;;4.93;3.27;;;15.80;97.00;;;;;;5346391;26;20784;-63
2024/04/15 09:59:45;;;;;;;4.60;4.30;;;15.70;97.90;;;;;;5345942;26;20440;-63
2024/04/15 10:02:25;;;;;;;3.93;3.10;;;15.70;97.20;;;;;;5346139;26;20436;-63
2024/04/15 10:04:56;;;;;;;3.63;3.33;;;15.60;97.40;;;;;;5346627;26;20512;-63
2024/04/15 10:07:25;;;;;;;5.27;3.50;;;15.70;98.00;;;;;;5346264;26;20571;-63
2024/04/15 10:09:51;;;;;;;3.83;3.50;;;15.70;97.90;;;;;;5345924;26;20444;-62
2024/04/15 10:12:18;;;;;;;3.60;3.30;;;15.70;97.40;;;;;;5345974;26;20573;-63
2024/04/15 10:14:44;;;;;;;3.80;3.40;;;15.70;96.90;;;;;;5346054;26;20472;-63
2024/04/15 10:17:10;;;;;;;3.43;3.13;;;15.60;97.40;;;;;;5346544;26;20579;-63
2024/04/15 10:19:35;;;;;;;4.27;3.70;;;15.70;97.50;;;;;;5345893;26;20984;-63
2024/04/15 10:22:01;;;;;;;5.40;4.73;;;15.60;97.30;;;;;;5345882;26;20225;-63
2024/04/15 10:24:27;;;;;;;5.43;3.40;;;15.50;97.50;;;;;;5345849;26;20232;-63
2024/04/15 10:26:53;;;;;;;5.03;4.57;;;15.60;97.80;;;;;;5345872;26;20804;-63
2024/04/15 10:29:21;;;;;;;4.87;4.47;;;15.40;98.20;;;;;;5345763;26;20559;-63
2024/04/15 10:31:51;;;;;;;7.17;5.27;;;15.10;98.40;;;;;;5345707;26;20752;-64
2024/04/15 10:34:19;;;;;;;6.40;4.27;;;15.00;99.20;;;;;;5345848;26;21065;-63
2024/04/15 10:36:50;;;;;;;7.20;4.83;;;15.20;99.20;;;;;;5345843;26;20459;-64
2024/04/15 10:39:17;;;;;;;4.13;3.73;;;15.50;98.70;;;;;;5345888;26;20444;-63
2024/04/15 10:41:44;;;;;;;5.00;4.20;;;15.60;98.50;;;;;;5345637;26;20515;-64
2024/04/15 10:44:10;;;;;;;4.87;4.37;;;15.50;98.20;;;;;;5345685;26;20508;-63
2024/04/15 10:46:39;;;;;;;4.73;4.27;;;15.30;98.20;;;;;;5315059;26;21025;-63
2024/04/15 10:49:06;;;;;;;5.60;3.77;;;15.30;98.90;;;;;;5345619;26;20444;-64
2024/04/15 10:51:32;;;;;;;7.13;4.67;;;15.20;98.90;;;;;;5345348;26;20456;-63
2024/04/15 10:53:58;;;;;;;4.40;4.03;;;15.20;98.70;;;;;;5343874;26;20464;-63
2024/04/15 10:56:23;;;;;;;4.90;4.43;;;15.20;99.00;;;;;;5345701;26;20565;-63
2024/04/15 10:58:49;;;;;;;4.30;3.90;;;14.90;99.20;;;;;;5345764;26;20218;-63
2024/04/15 11:01:15;;;;;;;4.87;3.63;;;14.70;99.80;;;;;;5343317;26;20229;-64
2024/04/15 11:03:47;;;;;;;4.00;3.60;;;14.80;99.90;;;;;;5344930;26;20517;-64
2024/04/15 11:06:16;;;;;;;5.07;4.20;;;15.00;99.90;;;;;;5345477;26;21049;-64
2024/04/15 11:08:42;;;;;;;5.07;3.73;;;15.10;99.30;;;;;;5345479;26;20951;-64
2024/04/15 11:11:09;;;;;;;4.67;4.13;;;15.20;98.90;;;;;;5345110;26;20447;-64
2024/04/15 11:13:35;;;;;;;3.57;3.27;;;15.10;99.20;;;;;;5345346;26;20503;-63
2024/04/15 11:16:01;;;;;;;4.07;3.77;;;14.90;99.70;;;;;;5345907;26;20883;-63
2024/04/15 11:18:26;;;;;;;4.53;3.77;;;15.10;99.40;;;;;;5345663;26;20510;-64
2024/04/15 11:21:02;;;;;;;4.63;3.40;;;15.20;99.20;;;;;;5345110;26;20447;-63
2024/04/15 11:23:28;;;;;;;4.40;4.10;;;15.20;99.00;;;;;;5345448;26;20297;-63
2024/04/15 11:25:56;;;;;;;5.10;4.17;;;15.30;99.60;;;;;;5345235;26;20450;-63
2024/04/15 11:28:24;;;;;;;4.93;4.53;;;15.90;99.30;;;;;;5345327;26;20440;-63
2024/04/15 11:30:50;;;;;;;4.20;3.83;;;16.50;97.60;;;;;;5344790;26;20444;-64
2024/04/15 11:33:17;;;;;;;3.50;2.70;;;17.00;96.60;;;;;;5345079;26;20586;-63
2024/04/15 11:35:50;;;;;;;4.33;3.97;;;17.20;95.70;;;;;;5345183;26;20448;-63
2024/04/15 11:38:17;;;;;;;5.47;3.77;;;17.30;95.10;;;;;;5345033;26;20448;-64
2024/04/15 11:40:43;;;;;;;6.07;3.60;;;17.30;95.50;;;;;;5344600;26;21089;-63
2024/04/15 11:43:09;;;;;;;3.93;3.63;;;17.20;95.50;;;;;;5353015;26;20538;-64
2024/04/15 11:45:35;;;;;;;4.53;3.20;;;17.40;95.50;;;;;;5380096;26;20443;-64
2024/04/15 11:48:00;;;;;;;3.53;3.23;;;17.70;95.40;;;;;;5379884;26;20213;-63
2024/04/15 11:50:26;;;;;;;3.33;3.03;;;17.90;94.30;;;;;;5379432;26;20212;-64
2024/04/15 11:52:57;;;;;;;7.80;3.73;;;17.80;93.70;;;;;;5379729;26;20276;-63
2024/04/15 11:55:23;;;;;;;3.90;3.60;;;17.80;94.40;;;;;;5379802;26;20574;-64
2024/04/15 11:57:49;;;;;;;2.90;2.60;;;18.00;93.80;;;;;;5379563;26;20485;-64
2024/04/15 12:00:16;;;;;;;5.27;3.10;;;18.20;93.90;;;;;;5379200;26;20495;-64
2024/04/15 12:02:43;;;;;;;4.70;2.03;;;18.40;93.20;;;;;;5379476;26;20568;-64
2024/04/15 12:05:10;;;;;;;3.27;3.07;;;18.60;92.40;;;;;;5379732;26;20440;-63
2024/04/15 12:07:38;;;;;;;4.00;2.47;;;18.80;91.90;;;;;;5379548;26;21079;-63
2024/04/15 12:10:06;;;;;;;2.77;2.50;;;18.60;91.70;;;;;;5379416;26;20510;-64
2024/04/15 12:12:31;;;;;;;3.10;2.10;;;18.60;92.00;;;;;;5379837;26;20797;-64
2024/04/15 12:14:57;;;;;;;3.30;2.77;;;18.60;91.20;;;;;;5381150;26;20506;-64
2024/04/15 12:17:23;;;;;;;3.20;2.33;;;18.50;91.60;;;;;;5383013;26;20220;-63
2024/04/15 12:19:48;;;;;;;2.63;2.43;;;18.50;91.90;;;;;;5382566;26;20558;-63
2024/04/15 12:22:14;;;;;;;3.87;3.00;;;18.30;90.70;;;;;;5382601;26;20222;-63
2024/04/15 12:24:39;;;;;;;3.90;2.40;;;18.00;90.80;;;;;;5382975;26;20793;-63
2024/04/15 12:27:05;;;;;;;2.73;2.27;;;17.90;91.60;;;;;;5382742;26;20316;-63
2024/04/15 12:29:31;;;;;;;2.90;2.10;;;17.60;91.90;;;;;;5382382;26;20213;-63
2024/04/15 12:31:56;;;;;;;2.93;2.43;;;17.50;93.20;;;;;;5351392;26;20229;-63
2024/04/15 12:34:22;;;;;;;2.23;2.03;;;17.30;92.90;;;;;;5351802;26;20232;-63
2024/04/15 12:36:48;;;;;;;4.20;2.47;;;17.30;93.10;;;;;;5382520;26;20326;-63
2024/04/15 12:39:13;;;;;;;4.97;2.60;;;17.00;93.00;;;;;;5382378;26;20220;-64
2024/04/15 12:41:39;;;;;;;2.67;2.47;;;16.80;93.00;;;;;;5382230;26;20555;-64
2024/04/15 12:44:05;;;;;;;2.47;2.27;;;16.80;93.90;;;;;;5382413;26;20224;-63